createdAt,value
2023-01-23T00:01:56.767Z,70.50
2023-01-23T00:03:58.883Z,70.77
2023-01-23T00:06:02.482Z,70.47
2023-01-23T00:08:04.290Z,69.57
2023-01-23T00:10:06.636Z,70.04
2023-01-23T00:12:08.280Z,70.47
2023-01-23T00:14:10.790Z,69.87
2023-01-23T00:16:15.446Z,69.64
2023-01-23T00:18:17.662Z,69.19
2023-01-23T00:20:19.578Z,69.97
2023-01-23T00:22:21.601Z,69.81
2023-01-23T00:24:23.162Z,69.66
2023-01-23T00:26:28.161Z,69.81
2023-01-23T00:28:29.681Z,70.21
2023-01-23T00:30:31.558Z,69.62
2023-01-23T00:32:33.252Z,70.05
2023-01-23T00:34:34.896Z,70.24
2023-01-23T00:36:39.476Z,69.51
2023-01-23T00:38:41.702Z,70.24
2023-01-23T00:40:43.380Z,69.62
2023-01-23T00:42:44.932Z,70.01
2023-01-23T00:44:46.551Z,70.56
2023-01-23T00:46:48.850Z,70.09
2023-01-23T00:48:51.123Z,70.45
2023-01-23T00:50:52.902Z,70.28
2023-01-23T00:52:54.563Z,70.32
2023-01-23T00:54:56.171Z,70.40
2023-01-23T00:56:57.964Z,70.44
2023-01-23T00:58:59.620Z,70.29
2023-01-23T01:01:01.288Z,69.44
2023-01-23T01:03:03.107Z,69.33
2023-01-23T01:05:05.128Z,69.40
2023-01-23T01:07:06.771Z,69.84
2023-01-23T01:09:08.402Z,69.51
2023-01-23T01:11:10.082Z,69.94
2023-01-23T01:13:12.185Z,69.75
2023-01-23T01:15:14.217Z,70.24
2023-01-23T01:17:15.822Z,70.14
2023-01-23T01:19:19.050Z,70.20
2023-01-23T01:21:20.872Z,69.96
2023-01-23T01:23:22.702Z,69.79
2023-01-23T01:25:24.815Z,69.61
2023-01-23T01:27:26.441Z,70.06
2023-01-23T01:29:28.034Z,70.46
2023-01-23T01:31:29.807Z,70.12
2023-01-23T01:33:31.568Z,69.77
2023-01-23T01:35:33.535Z,70.42
2023-01-23T01:37:36.318Z,70.24
2023-01-23T01:39:37.911Z,70.47
2023-01-23T01:41:39.581Z,70.46
2023-01-23T01:43:41.924Z,69.99
2023-01-23T01:46:05.856Z,70.44
2023-01-23T01:48:07.471Z,70.20
2023-01-23T01:50:12.413Z,70.40
2023-01-23T01:52:15.168Z,70.29
2023-01-23T01:54:33.307Z,70.48
2023-01-23T01:56:44.702Z,70.24
2023-01-23T01:58:47.897Z,70.90
2023-01-23T02:00:49.598Z,70.14
2023-01-23T02:02:54.168Z,70.11
2023-01-23T02:05:02.194Z,70.09
2023-01-23T02:07:09.210Z,70.36
2023-01-23T02:09:26.743Z,70.54
2023-01-23T02:11:28.560Z,70.31
2023-01-23T02:13:36.161Z,70.74
2023-01-23T02:15:38.280Z,70.88
2023-01-23T02:17:40.199Z,71.45
2023-01-23T02:19:59.393Z,71.76
2023-01-23T02:22:13.763Z,71.59
2023-01-23T02:24:37.209Z,72.46
2023-01-23T02:26:41.189Z,72.07
2023-01-23T02:28:45.514Z,72.15
2023-01-23T02:30:47.367Z,73.28
2023-01-23T02:32:49.092Z,73.31
2023-01-23T02:34:52.622Z,73.11
2023-01-23T02:36:54.572Z,72.94
2023-01-23T02:39:09.554Z,73.45
2023-01-23T02:41:12.613Z,73.85
2023-01-23T02:43:16.641Z,74.00
2023-01-23T02:45:18.300Z,74.47
2023-01-23T02:47:19.912Z,74.02
2023-01-23T02:49:22.400Z,74.80
2023-01-23T02:51:24.350Z,74.17
2023-01-23T02:53:26.915Z,73.39
2023-01-23T02:55:33.222Z,74.05
2023-01-23T02:57:35.063Z,73.51
2023-01-23T02:59:55.047Z,73.92
2023-01-23T03:01:57.693Z,73.70
2023-01-23T03:04:04.046Z,73.56
2023-01-23T03:06:06.069Z,73.49
2023-01-23T03:08:07.680Z,73.73
2023-01-23T03:10:10.704Z,72.85
2023-01-23T03:12:12.394Z,73.75
2023-01-23T03:14:16.914Z,73.67
2023-01-23T03:16:18.590Z,73.73
2023-01-23T03:18:20.567Z,74.23
2023-01-23T03:20:24.717Z,74.61
2023-01-23T03:22:26.649Z,74.63
2023-01-23T03:24:28.332Z,74.27
2023-01-23T03:26:29.958Z,73.91
2023-01-23T03:29:03.741Z,74.78
2023-01-23T03:31:05.976Z,74.87
2023-01-23T03:33:07.674Z,74.66
2023-01-23T03:35:10.323Z,73.83
2023-01-23T03:37:13.305Z,74.16
2023-01-23T03:39:33.405Z,73.45
2023-01-23T03:41:35.083Z,74.23
2023-01-23T03:43:36.634Z,73.28
2023-01-23T03:45:38.309Z,74.23
2023-01-23T03:47:39.960Z,72.85
2023-01-23T03:49:41.678Z,73.08
2023-01-23T03:51:43.609Z,73.34
2023-01-23T03:53:45.402Z,72.93
2023-01-23T03:55:47.535Z,73.72
2023-01-23T03:57:49.219Z,72.67
2023-01-23T03:59:50.803Z,72.69
2023-01-23T04:01:52.465Z,72.73
2023-01-23T04:03:54.079Z,72.68
2023-01-23T04:05:57.679Z,72.63
2023-01-23T04:07:59.362Z,73.63
2023-01-23T04:10:00.980Z,73.12
2023-01-23T04:12:02.601Z,73.41
2023-01-23T04:14:04.186Z,73.76
2023-01-23T04:16:06.669Z,73.63
2023-01-23T04:18:08.454Z,74.06
2023-01-23T04:20:11.648Z,73.77
2023-01-23T04:22:13.257Z,73.52
2023-01-23T04:24:16.023Z,73.79
2023-01-23T04:26:17.714Z,73.85
2023-01-23T04:28:19.527Z,73.92
2023-01-23T04:30:21.374Z,74.04
2023-01-23T04:32:23.133Z,74.37
2023-01-23T04:34:24.758Z,74.45
2023-01-23T04:36:26.383Z,74.31
2023-01-23T04:38:29.283Z,74.64
2023-01-23T04:40:30.866Z,74.55
2023-01-23T04:42:32.456Z,74.08
2023-01-23T04:44:34.081Z,74.54
2023-01-23T04:46:35.678Z,73.74
2023-01-23T04:48:37.238Z,73.22
2023-01-23T04:50:39.527Z,73.50
2023-01-23T04:52:41.164Z,73.55
2023-01-23T04:54:43.130Z,73.28
2023-01-23T04:57:03.700Z,73.11
2023-01-23T04:59:05.409Z,73.54
2023-01-23T05:01:08.130Z,73.83
2023-01-23T05:03:09.897Z,73.29
2023-01-23T05:05:12.524Z,73.42
2023-01-23T05:07:14.326Z,73.75
2023-01-23T05:09:15.907Z,74.28
2023-01-23T05:11:17.676Z,74.88
2023-01-23T05:13:19.277Z,74.95
2023-01-23T05:15:21.385Z,74.59
2023-01-23T05:17:23.105Z,75.34
2023-01-23T05:19:24.806Z,74.99
2023-01-23T05:21:26.535Z,74.94
2023-01-23T05:23:28.080Z,74.92
2023-01-23T05:25:29.841Z,74.65
2023-01-23T05:27:31.529Z,74.22
2023-01-23T05:29:33.147Z,74.63
2023-01-23T05:31:34.843Z,74.22
2023-01-23T05:33:36.586Z,74.07
2023-01-23T05:35:40.949Z,74.10
2023-01-23T05:37:42.942Z,74.56
2023-01-23T05:39:44.686Z,74.25
2023-01-23T05:41:46.294Z,74.14
2023-01-23T05:43:50.032Z,74.21
2023-01-23T05:45:51.900Z,73.87
2023-01-23T05:47:55.841Z,73.67
2023-01-23T05:49:57.936Z,73.71
2023-01-23T05:51:59.658Z,73.48
2023-01-23T05:54:02.784Z,72.75
2023-01-23T05:56:08.440Z,73.42
2023-01-23T05:58:10.048Z,73.49
2023-01-23T06:00:13.496Z,72.61
2023-01-23T06:02:15.184Z,72.84
2023-01-23T06:04:16.821Z,72.80
2023-01-23T06:06:18.483Z,72.86
2023-01-23T06:08:20.181Z,72.31
2023-01-23T06:10:22.219Z,72.27
2023-01-23T06:12:23.919Z,71.83
2023-01-23T06:14:25.499Z,71.45
2023-01-23T06:16:27.591Z,71.73
2023-01-23T06:18:29.211Z,71.57
2023-01-23T06:20:30.878Z,71.85
2023-01-23T06:22:32.733Z,71.36
2023-01-23T06:24:34.473Z,71.58
2023-01-23T06:26:36.080Z,71.38
2023-01-23T06:28:37.889Z,71.51
2023-01-23T06:30:39.536Z,70.80
2023-01-23T06:32:41.328Z,70.41
2023-01-23T06:34:43.169Z,71.32
2023-01-23T06:36:46.243Z,71.28
2023-01-23T06:38:47.885Z,71.23
2023-01-23T06:40:49.469Z,71.34
2023-01-23T06:42:54.828Z,71.78
2023-01-23T06:44:56.480Z,71.72
2023-01-23T06:46:58.166Z,71.61
2023-01-23T06:49:00.010Z,72.56
2023-01-23T06:51:02.308Z,72.22
2023-01-23T06:53:05.432Z,72.05
2023-01-23T06:55:07.304Z,73.05
2023-01-23T06:57:09.112Z,73.18
2023-01-23T06:59:10.929Z,73.06
2023-01-23T07:01:16.021Z,72.39
2023-01-23T07:03:17.784Z,72.67
2023-01-23T07:05:20.271Z,73.08
2023-01-23T07:07:21.897Z,72.93
2023-01-23T07:09:23.515Z,73.46
2023-01-23T07:11:25.574Z,73.80
2023-01-23T07:13:27.339Z,73.68
2023-01-23T07:15:29.015Z,73.72
2023-01-23T07:17:30.641Z,73.58
2023-01-23T07:19:32.576Z,74.68
2023-01-23T07:21:34.461Z,75.01
2023-01-23T07:23:36.263Z,74.84
2023-01-23T07:25:38.108Z,74.86
2023-01-23T07:27:39.948Z,74.59
2023-01-23T07:29:42.878Z,74.63
2023-01-23T07:31:44.700Z,75.02
2023-01-23T07:33:46.355Z,75.90
2023-01-23T07:35:48.089Z,76.23
2023-01-23T07:37:49.939Z,76.63
2023-01-23T07:39:51.648Z,76.81
2023-01-23T07:41:53.238Z,76.49
2023-01-23T07:43:55.110Z,76.50
2023-01-23T07:46:00.459Z,76.98
2023-01-23T07:48:02.053Z,76.50
2023-01-23T07:50:04.029Z,76.60
2023-01-23T07:52:05.674Z,76.67
2023-01-23T07:54:07.588Z,76.69
2023-01-23T07:56:09.415Z,76.79
2023-01-23T07:58:11.152Z,77.24
2023-01-23T08:00:12.931Z,76.94
2023-01-23T08:02:14.735Z,77.02
2023-01-23T08:04:16.473Z,76.77
2023-01-23T08:06:18.059Z,76.11
2023-01-23T08:08:19.663Z,76.00
2023-01-23T08:10:21.634Z,75.71
2023-01-23T08:12:23.625Z,75.97
2023-01-23T08:14:25.285Z,75.49
2023-01-23T08:16:27.072Z,74.97
2023-01-23T08:18:30.633Z,75.36
2023-01-23T08:20:32.196Z,75.44
2023-01-23T08:22:34.024Z,75.48
2023-01-23T08:24:35.898Z,75.22
2023-01-23T08:26:37.717Z,74.35
2023-01-23T08:28:39.673Z,74.65
2023-01-23T08:30:41.504Z,74.49
2023-01-23T08:32:43.177Z,74.09
2023-01-23T08:34:44.760Z,72.99
2023-01-23T08:36:46.334Z,73.21
2023-01-23T08:38:48.306Z,73.28
2023-01-23T08:40:51.706Z,73.47
2023-01-23T08:42:54.066Z,72.85
2023-01-23T08:44:56.792Z,72.65
2023-01-23T08:46:58.461Z,73.03
2023-01-23T08:49:00.252Z,72.61
2023-01-23T08:51:07.854Z,72.64
2023-01-23T08:53:09.470Z,72.19
2023-01-23T08:55:12.775Z,72.72
2023-01-23T08:57:14.463Z,73.01
2023-01-23T08:59:16.081Z,72.81
2023-01-23T09:01:23.415Z,73.02
2023-01-23T09:03:25.679Z,72.54
2023-01-23T09:05:28.987Z,72.64
2023-01-23T09:07:30.873Z,72.62
2023-01-23T09:09:32.548Z,71.76
2023-01-23T09:11:34.240Z,72.05
2023-01-23T09:13:36.009Z,72.26
2023-01-23T09:15:39.397Z,71.87
2023-01-23T09:17:41.021Z,71.13
2023-01-23T09:19:42.667Z,71.34
2023-01-23T09:21:44.697Z,71.03
2023-01-23T09:23:46.314Z,71.37
2023-01-23T09:25:48.042Z,71.21
2023-01-23T09:27:49.704Z,70.82
2023-01-23T09:29:51.389Z,71.33
2023-01-23T09:31:53.039Z,71.37
2023-01-23T09:33:54.721Z,71.20
2023-01-23T09:35:57.748Z,71.54
2023-01-23T09:38:02.313Z,71.07
2023-01-23T09:40:04.277Z,71.81
2023-01-23T09:42:08.519Z,71.99
2023-01-23T09:44:13.310Z,72.25
2023-01-23T09:46:32.553Z,72.36
2023-01-23T09:48:44.332Z,71.82
2023-01-23T09:50:55.412Z,72.12
2023-01-23T09:53:04.878Z,72.26
2023-01-23T09:55:19.319Z,71.55
2023-01-23T09:57:24.166Z,71.91
2023-01-23T09:59:53.761Z,71.94
2023-01-23T10:01:59.773Z,72.54
2023-01-23T10:04:02.389Z,73.05
2023-01-23T10:06:26.866Z,73.50
2023-01-23T10:08:51.305Z,74.00
2023-01-23T10:10:54.564Z,74.63
2023-01-23T10:13:20.894Z,74.96
2023-01-23T10:15:45.767Z,75.06
2023-01-23T10:18:20.261Z,74.76
2023-01-23T10:20:34.056Z,75.34
2023-01-23T10:22:41.769Z,76.01
2023-01-23T10:24:55.663Z,75.50
2023-01-23T10:27:03.619Z,75.33
2023-01-23T10:29:38.602Z,75.90
2023-01-23T10:31:43.019Z,76.09
2023-01-23T10:33:49.762Z,76.07
2023-01-23T10:35:53.712Z,75.86
2023-01-23T10:38:12.560Z,75.49
2023-01-23T10:40:17.203Z,75.25
2023-01-23T10:42:22.426Z,75.77
2023-01-23T10:44:24.318Z,76.27
2023-01-23T10:46:35.946Z,76.18
2023-01-23T10:48:49.099Z,76.16
2023-01-23T10:50:51.650Z,75.96
2023-01-23T10:53:06.063Z,76.13
2023-01-23T10:55:20.193Z,76.46
2023-01-23T10:57:23.710Z,76.33
2023-01-23T11:00:04.535Z,75.95
2023-01-23T11:02:15.932Z,77.29
2023-01-23T11:04:23.730Z,77.26
2023-01-23T11:06:26.223Z,77.21
2023-01-23T11:08:36.802Z,76.75
2023-01-23T11:10:38.508Z,77.07
2023-01-23T11:12:54.355Z,76.24
2023-01-23T11:15:31.296Z,75.99
2023-01-23T11:17:33.399Z,76.61
2023-01-23T11:19:37.128Z,76.49
2023-01-23T11:21:51.715Z,77.59
2023-01-23T11:24:20.450Z,77.77
2023-01-23T11:26:34.545Z,78.45
2023-01-23T11:28:48.861Z,77.65
2023-01-23T11:30:51.348Z,77.96
2023-01-23T11:33:02.308Z,77.75
2023-01-23T11:35:13.495Z,77.33
2023-01-23T11:37:25.816Z,77.75
2023-01-23T11:39:37.998Z,77.63
2023-01-23T11:41:39.902Z,77.95
2023-01-23T11:43:41.999Z,77.97
2023-01-23T11:46:30.953Z,77.83
2023-01-23T11:48:54.999Z,77.39
2023-01-23T11:51:19.004Z,78.04
2023-01-23T11:53:36.698Z,77.69
2023-01-23T11:56:13.457Z,77.79
2023-01-23T11:58:30.814Z,78.17
2023-01-23T12:00:44.230Z,78.64
2023-01-23T12:02:58.687Z,78.64
2023-01-23T12:05:16.406Z,78.45
2023-01-23T12:07:21.835Z,78.41
2023-01-23T12:09:29.628Z,78.20
2023-01-23T12:11:41.232Z,78.40
2023-01-23T12:14:04.937Z,78.02
2023-01-23T12:16:28.099Z,78.05
2023-01-23T12:18:44.824Z,78.62
2023-01-23T12:20:52.898Z,78.67
2023-01-23T12:23:07.549Z,79.18
2023-01-23T12:25:33.887Z,78.38
2023-01-23T12:27:43.858Z,78.93
2023-01-23T12:30:22.821Z,78.49
2023-01-23T12:32:55.343Z,79.29
2023-01-23T12:35:21.575Z,78.82
2023-01-23T12:37:54.781Z,79.01
2023-01-23T12:39:59.457Z,78.99
2023-01-23T12:42:07.129Z,79.86
2023-01-23T12:44:16.805Z,79.54
2023-01-23T12:46:48.006Z,79.32
2023-01-23T12:48:56.070Z,79.12
2023-01-23T12:51:15.552Z,79.07
2023-01-23T12:53:20.293Z,79.03
2023-01-23T12:55:25.090Z,78.87
2023-01-23T12:57:59.266Z,77.92
2023-01-23T13:00:07.931Z,78.07
2023-01-23T13:02:15.616Z,78.22
2023-01-23T13:04:35.201Z,77.88
2023-01-23T13:06:48.915Z,77.77
2023-01-23T13:09:35.527Z,78.07
2023-01-23T13:12:04.614Z,78.19
2023-01-23T13:15:06.491Z,78.59
2023-01-23T13:17:38.223Z,78.62
2023-01-23T13:20:00.883Z,78.70
2023-01-23T13:22:22.321Z,78.87
2023-01-23T13:24:52.679Z,79.21
2023-01-23T13:26:54.523Z,79.29
2023-01-23T13:28:58.685Z,79.00
2023-01-23T13:31:02.707Z,79.06
2023-01-23T13:33:06.999Z,79.19
2023-01-23T13:35:43.425Z,78.99
2023-01-23T13:37:51.493Z,79.19
2023-01-23T13:40:17.221Z,79.96
2023-01-23T13:42:39.105Z,79.46
2023-01-23T13:45:18.653Z,79.58
2023-01-23T14:38:37.723Z,77.04
2023-01-23T14:40:50.210Z,76.93
2023-01-23T14:42:59.504Z,76.35
2023-01-23T14:45:02.316Z,76.85
2023-01-23T14:47:05.088Z,76.99
2023-01-23T14:49:08.114Z,77.49
2023-01-23T14:51:25.484Z,77.68
2023-01-23T14:53:27.104Z,76.98
2023-01-23T14:55:30.416Z,76.83
2023-01-23T14:57:32.288Z,76.47
2023-01-23T14:59:38.672Z,76.82
2023-01-23T15:01:40.356Z,76.38
2023-01-23T15:03:45.007Z,76.69
2023-01-23T15:05:57.247Z,77.06
2023-01-23T15:08:03.224Z,76.45
2023-01-23T15:10:05.237Z,77.09
2023-01-23T15:12:08.881Z,77.10
2023-01-23T15:14:29.378Z,77.03
2023-01-23T15:16:38.213Z,77.16
2023-01-23T15:18:40.183Z,76.94
2023-01-23T15:20:41.943Z,76.61
2023-01-23T15:22:43.578Z,76.59
2023-01-23T15:24:45.347Z,76.76
2023-01-23T15:26:59.015Z,76.43
2023-01-23T15:29:09.675Z,77.09
2023-01-23T15:31:27.541Z,76.92
2023-01-23T15:33:31.052Z,76.65
2023-01-23T15:35:37.319Z,76.50
2023-01-23T15:37:38.977Z,76.29
2023-01-23T15:39:50.645Z,76.38
2023-01-23T15:41:56.225Z,76.35
2023-01-23T15:43:57.768Z,76.49
2023-01-23T15:46:00.621Z,75.82
2023-01-23T15:48:02.326Z,75.62
2023-01-23T15:50:04.105Z,75.76
2023-01-23T15:52:24.214Z,75.68
2023-01-23T15:54:36.109Z,75.65
2023-01-23T15:56:38.775Z,76.16
2023-01-23T15:58:40.378Z,76.59
2023-01-23T16:00:42.126Z,75.95
2023-01-23T16:02:55.013Z,76.28
2023-01-23T16:04:57.907Z,76.28
2023-01-23T16:07:07.125Z,76.26
2023-01-23T16:09:15.802Z,75.56
2023-01-23T16:11:18.561Z,75.73
2023-01-23T16:13:20.186Z,75.74
2023-01-23T16:15:24.958Z,75.54
2023-01-23T16:17:26.676Z,75.53
2023-01-23T16:19:28.262Z,76.04
2023-01-23T16:21:30.521Z,76.15
2023-01-23T16:23:42.533Z,77.24
2023-01-23T16:25:49.390Z,76.68
2023-01-23T16:27:51.288Z,77.22
2023-01-23T16:29:54.089Z,76.60
2023-01-23T16:31:56.619Z,75.85
2023-01-23T16:33:58.460Z,76.27
2023-01-23T16:36:00.218Z,76.35
2023-01-23T16:38:02.051Z,76.64
2023-01-23T16:40:04.038Z,76.63
2023-01-23T16:42:05.741Z,77.26
2023-01-23T16:44:18.732Z,77.07
2023-01-23T16:46:20.479Z,76.12
2023-01-23T16:48:27.120Z,76.17
2023-01-23T16:50:37.819Z,75.95
2023-01-23T16:52:40.380Z,76.08
2023-01-23T16:54:42.994Z,76.23
2023-01-23T16:56:45.007Z,76.08
2023-01-23T16:58:46.751Z,75.85
2023-01-23T17:00:49.924Z,75.78
2023-01-23T17:02:53.944Z,75.97
2023-01-23T17:04:55.476Z,75.80
2023-01-23T17:06:57.139Z,76.15
2023-01-23T17:08:59.072Z,75.97
2023-01-23T17:11:02.860Z,75.78
2023-01-23T17:13:04.530Z,75.84
2023-01-23T17:15:07.078Z,76.04
2023-01-23T17:17:14.318Z,75.79
2023-01-23T17:19:41.673Z,75.88
2023-01-23T17:21:44.366Z,75.42
2023-01-23T17:23:46.714Z,74.94
2023-01-23T17:25:59.934Z,75.24
2023-01-23T17:28:12.892Z,75.38
2023-01-23T17:30:21.324Z,75.72
2023-01-23T17:32:39.137Z,75.89
2023-01-23T17:34:49.416Z,75.76
2023-01-23T17:36:53.032Z,75.82
2023-01-23T17:38:55.871Z,75.96
2023-01-23T17:40:57.523Z,76.07
2023-01-23T17:42:59.138Z,75.94
2023-01-23T17:45:00.764Z,76.00
2023-01-23T17:47:02.421Z,75.84
2023-01-23T17:49:04.589Z,76.39
2023-01-23T17:51:14.656Z,76.13
2023-01-23T17:53:17.285Z,76.24
2023-01-23T17:55:25.498Z,76.27
2023-01-23T17:57:27.229Z,76.14
2023-01-23T17:59:28.886Z,76.14
2023-01-23T18:01:30.696Z,76.23
2023-01-23T18:03:32.534Z,75.95
2023-01-23T18:05:34.384Z,75.76
2023-01-23T18:07:48.441Z,75.77
2023-01-23T18:09:56.325Z,76.11
2023-01-23T18:11:59.143Z,76.25
2023-01-23T18:14:15.855Z,76.88
2023-01-23T18:16:24.772Z,76.46
2023-01-23T18:18:26.363Z,76.98
2023-01-23T18:20:28.701Z,77.26
2023-01-23T18:22:31.115Z,77.61
2023-01-23T18:24:33.464Z,77.62
2023-01-23T18:26:45.459Z,77.75
2023-01-23T18:29:13.336Z,77.51
2023-01-23T18:31:40.928Z,77.74
2023-01-23T18:33:54.549Z,78.02
2023-01-23T18:36:02.712Z,77.45
2023-01-23T18:38:17.333Z,77.93
2023-01-23T18:40:45.264Z,77.91
2023-01-23T18:43:08.637Z,78.03
2023-01-23T18:45:23.663Z,77.83
2023-01-23T18:47:28.695Z,78.10
2023-01-23T18:49:32.960Z,77.80
2023-01-23T18:52:10.248Z,77.93
2023-01-23T18:54:38.924Z,78.31
2023-01-23T18:56:52.387Z,78.08
2023-01-23T18:59:10.272Z,77.63
2023-01-23T19:01:24.073Z,77.46
2023-01-23T19:03:36.690Z,77.02
2023-01-23T19:05:38.394Z,76.27
2023-01-23T19:07:40.789Z,76.51
2023-01-23T19:09:46.532Z,76.56
2023-01-23T19:12:25.330Z,76.57
2023-01-23T19:14:30.543Z,76.61
2023-01-23T19:16:33.297Z,76.33
2023-01-23T19:18:40.084Z,76.87
2023-01-23T19:20:46.788Z,77.16
2023-01-23T19:23:19.346Z,77.31
2023-01-23T19:25:22.137Z,76.68
2023-01-23T19:27:24.237Z,76.38
2023-01-23T19:29:26.138Z,76.52
2023-01-23T19:31:30.117Z,76.05
2023-01-23T19:33:31.898Z,75.69
2023-01-23T19:35:33.629Z,75.56
2023-01-23T19:37:39.807Z,75.62
2023-01-23T19:39:41.416Z,75.60
2023-01-23T19:41:45.241Z,75.36
2023-01-23T19:43:47.600Z,74.99
2023-01-23T19:45:49.181Z,74.69
2023-01-23T19:47:53.419Z,74.47
2023-01-23T19:49:55.044Z,74.35
2023-01-23T19:51:56.708Z,74.29
2023-01-23T19:53:58.761Z,73.79
2023-01-23T19:56:01.457Z,73.57
2023-01-23T19:58:03.160Z,73.52
2023-01-23T20:00:05.789Z,73.78
2023-01-23T20:02:19.561Z,73.60
2023-01-23T20:04:23.183Z,73.68
2023-01-23T20:06:24.833Z,73.06
2023-01-23T20:08:26.492Z,73.36
2023-01-23T20:10:28.331Z,72.66
2023-01-23T20:12:30.035Z,72.38
2023-01-23T20:14:31.833Z,72.32
2023-01-23T20:16:33.450Z,72.73
2023-01-23T20:18:35.104Z,72.69
2023-01-23T20:20:36.830Z,72.50
2023-01-23T20:22:39.607Z,72.16
2023-01-23T20:24:41.255Z,71.90
2023-01-23T20:26:42.871Z,71.51
2023-01-23T20:28:47.895Z,71.17
2023-01-23T20:30:49.567Z,71.45
2023-01-23T20:32:51.273Z,71.65
2023-01-23T20:34:55.331Z,71.74
2023-01-23T20:36:56.936Z,72.10
2023-01-23T20:38:58.773Z,72.15
2023-01-23T20:41:04.743Z,71.65
2023-01-23T20:43:06.384Z,72.11
2023-01-23T20:45:08.877Z,72.43
2023-01-23T20:47:10.575Z,71.51
2023-01-23T20:49:13.585Z,71.80
2023-01-23T20:51:16.625Z,71.63
2023-01-23T20:53:30.202Z,71.74
2023-01-23T20:55:31.740Z,71.15
2023-01-23T20:57:51.791Z,71.58
2023-01-23T20:59:53.392Z,71.42
2023-01-23T21:02:13.382Z,71.51
2023-01-23T21:04:14.994Z,71.52
2023-01-23T21:06:17.854Z,71.64
2023-01-23T21:08:19.469Z,71.65
2023-01-23T21:10:21.062Z,71.95
2023-01-23T21:12:22.694Z,72.03
2023-01-23T21:14:24.552Z,71.87
2023-01-23T21:16:26.347Z,71.22
2023-01-23T21:18:28.549Z,71.10
2023-01-23T21:20:30.155Z,71.19
2023-01-23T21:22:31.798Z,71.20
2023-01-23T21:24:34.571Z,70.70
2023-01-23T21:26:37.149Z,71.02
2023-01-23T21:28:39.006Z,70.70
2023-01-23T21:30:40.952Z,71.07
2023-01-23T21:32:42.722Z,71.79
2023-01-23T21:34:44.344Z,71.47
2023-01-23T21:36:45.950Z,71.01
2023-01-23T21:38:51.177Z,71.53
2023-01-23T21:40:54.005Z,71.27
2023-01-23T21:42:55.790Z,70.97
2023-01-23T21:44:58.093Z,71.24
2023-01-23T21:46:59.680Z,71.50
2023-01-23T21:49:01.532Z,71.46
2023-01-23T21:51:05.036Z,71.95
2023-01-23T21:53:07.500Z,71.63
2023-01-23T21:55:09.437Z,71.66
2023-01-23T21:57:10.987Z,71.67
2023-01-23T21:59:12.659Z,71.81
2023-01-23T22:01:32.961Z,72.04
2023-01-23T22:03:35.836Z,72.52
2023-01-23T22:05:37.586Z,72.14
2023-01-23T22:07:39.245Z,72.01
2023-01-23T22:09:40.946Z,72.63
2023-01-23T22:11:42.859Z,72.58
2023-01-23T22:13:44.605Z,72.76
2023-01-23T22:15:46.322Z,72.81
2023-01-23T22:17:48.033Z,72.87
2023-01-23T22:19:50.804Z,72.82
2023-01-23T22:21:54.207Z,72.97
2023-01-23T22:23:55.945Z,73.11
2023-01-23T22:25:59.801Z,72.69
2023-01-23T22:28:01.278Z,73.01
2023-01-23T22:30:03.105Z,73.37
2023-01-23T22:32:05.008Z,72.80
2023-01-23T22:34:07.153Z,72.88
2023-01-23T22:36:11.578Z,73.47
2023-01-23T22:38:14.533Z,72.78
2023-01-23T22:40:16.459Z,73.00
2023-01-23T22:42:19.192Z,72.84
2023-01-23T22:44:20.900Z,73.36
2023-01-23T22:46:23.618Z,73.39
2023-01-23T22:48:25.200Z,73.34
2023-01-23T22:50:27.501Z,73.45
2023-01-23T22:52:29.203Z,73.23
2023-01-23T22:54:30.908Z,73.36
2023-01-23T22:56:32.625Z,73.20
2023-01-23T22:58:34.796Z,73.74
2023-01-23T23:00:36.357Z,74.02
2023-01-23T23:02:39.149Z,73.90
2023-01-23T23:04:40.791Z,74.51
2023-01-23T23:06:42.380Z,74.43
2023-01-23T23:08:47.237Z,74.71
2023-01-23T23:11:09.018Z,74.63
2023-01-23T23:13:10.604Z,74.67
2023-01-23T23:15:12.205Z,74.71
2023-01-23T23:17:13.846Z,74.53
2023-01-23T23:19:15.605Z,74.47
2023-01-23T23:21:20.578Z,74.27
2023-01-23T23:23:22.237Z,74.08
2023-01-23T23:25:23.820Z,73.88
2023-01-23T23:27:25.409Z,73.83
2023-01-23T23:29:27.085Z,73.62
2023-01-23T23:31:29.361Z,73.84
2023-01-23T23:33:31.232Z,73.95
2023-01-23T23:35:32.863Z,73.71
2023-01-23T23:37:34.783Z,73.63
2023-01-23T23:39:36.410Z,73.21
2023-01-23T23:41:38.131Z,73.27
2023-01-23T23:43:39.791Z,73.27
2023-01-23T23:45:51.856Z,72.88
2023-01-23T23:47:55.066Z,72.72
2023-01-23T23:49:56.737Z,73.26
2023-01-23T23:51:58.347Z,73.04
2023-01-23T23:54:00.027Z,72.75
2023-01-23T23:56:02.080Z,72.87
2023-01-23T23:58:03.715Z,73.67
